Terminal Aerodrome Forecast
Issued by NWS Wakefield, VA

Home | Current Version | Previous Version | Text Only | Print | Product List | Glossary On
Versions: 1 2 3 4 5 6 7 8 9 10 11 12 13 14 15 16 17 18 19 20 21 22 23 24 25
000
FTUS41 KAKQ 250132 AAC
TAFSBY
TAF AMD
KSBY 250132Z 2502/2524 02005KT P6SM BKN010 OVC025
      TEMPO 2502/2503 4SM -RA BR OVC010
     FM250300 VRB03KT P6SM SCT035
     FM250900 35003KT 5SM BR FEW003 SCT035 SCT250
     FM251300 36006KT P6SM SCT050 SCT250=

USA.gov is the U.S. government's official web portal to all federal, state and local government web resources and services.